Flight Track Log - Related Links

Times and Time Zones

All times are in EDT time to prevent confusion due to time zone crossing. See the SWA127 flight status page for this flight to view local times or setup timezone preferences in your user account.

Time Position Orientation Groundspeed Altitude Reporting Facility
EDT Latitude Longitude Course Direction KTS MPH feet Rate Location/Type
Fri 07:28:09 PM 29.9761 -90.2539 204° Southwest 152 175 1,000  Level Houston Center
Fri 07:28:43 PM 29.9592 -90.2625 204° Southwest 169 194 1,900 2,886 Climbing Houston Center
Fri 07:29:28 PM 29.9253 -90.2344 144° Southeast 203 234 4,800 3,197 Climbing Houston Center
Fri 07:30:45 PM 29.9858 -90.1711 42° Northeast 235 270 8,400 3,022 Climbing Houston Center
Fri 07:31:47 PM 30.0483 -90.1067 42° Northeast 288 331 11,800 3,366 Climbing Houston Center
Fri 07:32:48 PM 30.1208 -90.0336 41° Northeast 339 390 15,300 3,246 Climbing Houston Center
Fri 07:33:49 PM 30.1961 -89.9536 43° Northeast 364 419 18,400 2,683 Climbing Houston Center
Fri 07:34:51 PM 30.2703 -89.8508 50° Northeast 422 486 20,800 2,585 Climbing Houston Center
Fri 07:35:52 PM 30.3367 -89.7336 57° Northeast 426 490 23,700 2,164 Climbing Houston Center
Fri 07:36:53 PM 30.4161 -89.5986 56° Northeast 467 537 25,200 1,707 Climbing Houston Center
Fri 07:37:55 PM 30.4900 -89.4703 56° Northeast 479 551 27,200 1,805 Climbing Houston Center
Fri 07:38:56 PM 30.5658 -89.3375 56° Northeast 491 565 28,900 1,854 Climbing Houston Center
Fri 07:39:58 PM 30.6419 -89.2017 57° Northeast 502 578 31,000 2,049 Climbing Houston Center
Fri 07:40:59 PM 30.7158 -89.0669 57° Northeast 495 570 33,100 2,016 Climbing Houston Center
Fri 07:42:00 PM 30.8017 -88.9189 56° Northeast 496 571 35,100 1,951 Climbing Houston Center
Fri 07:43:02 PM 30.8769 -88.7853 57° Northeast 494 568 37,100 1,805 Climbing Houston Center
Fri 07:44:03 PM 30.9542 -88.6578 55° Northeast 482 555 38,800 1,561 Climbing Houston Center
Fri 07:45:05 PM 31.0433 -88.5228 52° Northeast 487 560 40,300 1,073 Climbing Houston Center
Fri 07:46:06 PM 31.1253 -88.3992 52° Northeast 488 562 41,000 341 Climbing Houston Center
Fri 07:47:08 PM 31.2111 -88.2758 51° Northeast 494 568 41,000  Level Houston Center
Fri 07:48:09 PM 31.2908 -88.1511 53° Northeast 487 560 41,000  Level Houston Center
Fri 07:49:11 PM 31.3706 -88.0233 54° Northeast 487 560 41,000  Level Houston Center
Fri 07:50:12 PM 31.4500 -87.8981 53° Northeast 481 554 41,000  Level Houston Center
Fri 07:51:14 PM 31.5292 -87.7742 53° Northeast 475 547 41,000  Level Houston Center
Fri 07:52:15 PM 31.6092 -87.6511 53° Northeast 475 547 41,000  Level Houston Center
Fri 07:53:17 PM 31.7042 -87.5000 54° Northeast 478 550 41,000  Level Houston Center
Fri 07:54:18 PM 31.7839 -87.3750 53° Northeast 478 550 41,000  Level Houston Center
Fri 07:55:20 PM 31.8631 -87.2492 53° Northeast 478 550 41,000  Level Houston Center
Fri 07:56:21 PM 31.9419 -87.1239 53° Northeast 478 550 41,000  Level Houston Center
Fri 07:57:23 PM 32.0228 -86.9983 53° Northeast 480 552 41,000  Level Houston Center
Fri 07:58:24 PM 32.1031 -86.8736 53° Northeast 480 552 41,000  Level Houston Center
Fri 07:59:26 PM 32.1858 -86.7503 52° Northeast 479 551 41,000  Level Houston Center
Fri 08:00:27 PM 32.2658 -86.6250 53° Northeast 479 551 41,000  Level Houston Center
Fri 08:01:42 PM 32.3764 -86.4467 54° Northeast 474 545 41,000  Level Atlanta Center
Fri 08:02:41 PM 32.4392 -86.3303 57° Northeast 464 534 41,000  Level Atlanta Center
Fri 08:03:41 PM 32.5336 -86.1897 51° Northeast 481 554 41,000  Level Atlanta Center
Fri 08:04:41 PM 32.6067 -86.0633 56° Northeast 481 554 41,000  Level Atlanta Center
Fri 08:05:41 PM 32.6839 -85.9367 54° Northeast 476 548 41,000  Level Atlanta Center
Fri 08:06:41 PM 32.7608 -85.8125 54° Northeast 470 541 41,000  Level Atlanta Center
Fri 08:07:41 PM 32.8356 -85.6853 55° Northeast 470 541 41,000  Level Atlanta Center
Fri 08:08:42 PM 32.9081 -85.5631 55° Northeast 470 541 41,000  Level Atlanta Center
Fri 08:09:41 PM 32.9847 -85.4356 54° Northeast 470 541 41,000  Level Atlanta Center
Fri 08:10:41 PM 33.0464 -85.3375 53° Northeast 470 541 41,000  Level Atlanta Center
Fri 08:11:41 PM 33.1272 -85.2022 54° Northeast 460 529 41,000  Level Atlanta Center
Fri 08:12:41 PM 33.2119 -85.0617 54° Northeast 466 536 41,000  Level Atlanta Center
Fri 08:13:41 PM 33.2881 -84.9383 54° Northeast 472 543 41,000  Level Atlanta Center
Fri 08:14:41 PM 33.3619 -84.8072 56° Northeast 472 543 41,000  Level Atlanta Center
Fri 08:15:42 PM 33.4397 -84.6786 54° Northeast 472 543 41,000  Level Atlanta Center
Fri 08:16:41 PM 33.5136 -84.5497 55° Northeast 472 543 41,000  Level Atlanta Center
Fri 08:17:42 PM 33.5892 -84.4178 55° Northeast 472 543 41,000  Level Atlanta Center
Fri 08:18:42 PM 33.6583 -84.3008 55° Northeast 472 543 41,000  Level Atlanta Center
Fri 08:19:42 PM 33.7442 -84.1561 54° Northeast 483 556 41,000  Level Atlanta Center
Fri 08:20:42 PM 33.8214 -84.0239 55° Northeast 483 556 41,000  Level Atlanta Center
Fri 08:21:42 PM 33.8986 -83.8936 54° Northeast 483 556 41,000  Level Atlanta Center
Fri 08:22:42 PM 33.9733 -83.7633 55° Northeast 483 556 41,000  Level Atlanta Center
Fri 08:23:42 PM 34.0483 -83.6328 55° Northeast 478 550 41,000  Level Atlanta Center
Fri 08:24:42 PM 34.1250 -83.4992 55° Northeast 473 544 41,000  Level Atlanta Center
Fri 08:25:42 PM 34.2014 -83.3683 55° Northeast 473 544 41,000  Level Atlanta Center
Fri 08:26:42 PM 34.2758 -83.2394 55° Northeast 473 544 41,000  Level Atlanta Center
Fri 08:27:42 PM 34.3522 -83.1028 56° Northeast 473 544 41,000  Level Atlanta Center
Fri 08:28:42 PM 34.4181 -82.9864 56° Northeast 473 544 41,000  Level Atlanta Center
Fri 08:29:42 PM 34.4939 -82.8517 56° Northeast 479 551 41,000  Level Atlanta Center
Fri 08:30:42 PM 34.5656 -82.7169 57° Northeast 474 545 41,000  Level Atlanta Center
Fri 08:31:42 PM 34.6433 -82.5869 54° Northeast 474 545 41,000  Level Atlanta Center
Fri 08:32:42 PM 34.7169 -82.4519 56° Northeast 474 545 41,000  Level Atlanta Center
Fri 08:33:42 PM 34.7944 -82.3189 55° Northeast 474 545 41,000  Level Atlanta Center
Fri 08:34:42 PM 34.8675 -82.1781 58° Northeast 474 545 41,000  Level Atlanta Center
Fri 08:35:42 PM 34.9467 -82.0369 56° Northeast 469 540 41,000  Level Atlanta Center
Fri 08:36:42 PM 35.0194 -81.9033 56° Northeast 474 545 41,000  Level Atlanta Center
Fri 08:37:42 PM 35.0944 -81.7694 56° Northeast 474 545 41,000  Level Atlanta Center
Fri 08:38:42 PM 35.1669 -81.6353 57° Northeast 474 545 41,000  Level Atlanta Center
Fri 08:39:42 PM 35.2350 -81.5011 58° Northeast 468 539 41,000  Level Atlanta Center
Fri 08:40:42 PM 35.3075 -81.3692 56° Northeast 468 539 41,000  Level Atlanta Center
Fri 08:41:42 PM 35.3753 -81.2369 58° Northeast 468 539 41,000  Level Atlanta Center
Fri 08:42:42 PM 35.4453 -81.1019 57° Northeast 463 533 41,000  Level Atlanta Center
Fri 08:43:42 PM 35.5192 -80.9667 56° Northeast 469 540 41,000  Level Atlanta Center
Fri 08:44:42 PM 35.5889 -80.8414 56° Northeast 463 533 41,000  Level Atlanta Center
Fri 08:45:42 PM 35.6586 -80.7111 57° Northeast 457 526 41,000  Level Atlanta Center
Fri 08:46:42 PM 35.7300 -80.5775 57° Northeast 457 526 41,000  Level Atlanta Center
Fri 08:48:43 PM 35.8600 -80.3283 57° Northeast 463 533 41,000  Level Washington Center
Fri 08:49:42 PM 35.9297 -80.1992 56° Northeast 453 521 41,000  Level Washington Center
Fri 08:50:42 PM 35.9950 -80.0744 57° Northeast 443 510 41,000  Level Washington Center
Fri 08:51:43 PM 36.0664 -79.9450 56° Northeast 437 503 41,000  Level Washington Center
Fri 08:52:43 PM 36.1400 -79.8178 54° Northeast 449 517 41,000 -252 Level Washington Center
Fri 08:53:42 PM 36.2178 -79.6753 56° Northeast 456 525 40,500 -700 Descending Washington Center
Fri 08:54:43 PM 36.2869 -79.5475 56° Northeast 444 511 39,600 -793 Descending Washington Center
Fri 08:55:43 PM 36.3619 -79.4172 54° Northeast 451 519 38,900 -893 Descending Washington Center
Fri 08:56:44 PM 36.4283 -79.2964 56° Northeast 457 526 37,800 -1,000 Descending Washington Center
Fri 08:57:43 PM 36.5014 -79.1656 55° Northeast 457 526 36,900 -1,100 Descending Washington Center
Fri 08:58:44 PM 36.5825 -79.0297 53° Northeast 452 520 35,600 -2,529 Descending Washington Center
Fri 08:59:44 PM 36.6550 -78.8956 56° Northeast 452 520 31,800 -3,356 Descending Washington Center
Fri 09:00:42 PM 36.7297 -78.7561 56° Northeast 467 537 29,000 -1,424 Descending Washington Center
Fri 09:01:42 PM 36.8064 -78.6192 55° Northeast 475 547 29,000 -98 Level Washington Center
Fri 09:02:44 PM 36.8719 -78.4947 57° Northeast 475 547 28,800 -590 Descending Washington Center
Fri 09:03:44 PM 36.9483 -78.3544 56° Northeast 475 547 27,800 -915 Descending Washington Center
Fri 09:04:42 PM 37.0267 -78.2142 55° Northeast 480 552 27,000 -508 Descending Washington Center
Fri 09:05:42 PM 37.1167 -78.1000 45° Northeast 475 547 26,800 -590 Descending Washington Center
Fri 09:06:44 PM 37.2331 -78.0153 30° Northeast 468 539 25,800 -1,000 Descending Washington Center
Fri 09:07:42 PM 37.3475 -77.9300 31° Northeast 468 539 24,800 -1,008 Descending Washington Center
Fri 09:08:43 PM 37.4597 -77.8444 31° Northeast 468 539 23,800 -984 Descending Washington Center
Fri 09:09:44 PM 37.5717 -77.7614 30° Northeast 468 539 22,800 -1,008 Descending Washington Center
Fri 09:10:42 PM 37.6797 -77.6778 31° Northeast 463 533 21,800 -1,000 Descending Washington Center
Fri 09:11:44 PM 37.7875 -77.5942 32° Northeast 456 525 20,800 -1,000 Descending Washington Center
Fri 09:12:42 PM 37.8931 -77.5128 31° Northeast 456 525 19,800 -1,008 Descending Washington Center
Fri 09:13:43 PM 37.9986 -77.4336 31° Northeast 451 519 18,800 -1,000 Descending Washington Center
Fri 09:14:42 PM 38.0978 -77.3597 30° Northeast 434 499 17,800 -908 Descending Washington Center
Fri 09:15:42 PM 38.1947 -77.2719 35° Northeast 423 487 17,000 -885 Descending Washington Center
Fri 09:16:44 PM 38.2797 -77.1628 45° Northeast 423 487 16,000 -984 Descending Washington Center
Fri 09:17:44 PM 38.3603 -77.0692 42° Northeast 408 470 15,000 -1,000 Descending Washington Center
Fri 09:18:44 PM 38.4406 -76.9700 44° Northeast 397 457 14,000 -1,600 Descending Washington Center
Fri 09:19:44 PM 38.5250 -76.8628 45° Northeast 392 451 11,800 -1,780 Descending Washington Center
Fri 09:20:42 PM 38.5989 -76.7739 43° Northeast 380 437 10,500 -1,119 Descending Washington Center
Fri 09:21:42 PM 38.6644 -76.6950 43° Northeast 345 397 9,600 -1,240 Descending Washington Center
Fri 09:22:43 PM 38.7233 -76.6189 45° Northeast 314 361 8,000 -1,558 Descending Washington Center
Fri 09:23:26 PM 38.7667 -76.5667 43° Northeast 303 349 6,900 -1,515 Descending Potomac TRACON
Fri 09:24:26 PM 38.8500 -76.5333 17° North 289 333 5,400 -1,300 Descending Potomac TRACON
Fri 09:25:26 PM 38.9167 -76.5167 11° North 271 312 4,300 -700 Descending Potomac TRACON
Fri 09:26:26 PM 38.9833 -76.5000 11° North 230 265 4,000 -368 Descending Potomac TRACON
Fri 09:27:20 PM 39.0167 -76.5333 322° Northwest 183 211 3,600 -800 Descending Potomac TRACON
Fri 09:28:26 PM 39.0667 -76.5667 333° Northwest 192 221 2,400 -1,000 Descending Potomac TRACON
Fri 09:29:32 PM 39.1167 -76.6167 322° Northwest 174 200 1,400 -850 Descending Potomac TRACON
Fri 09:30:26 PM 39.1500 -76.6500 322° Northwest 145 167 700 -778 Descending Potomac TRACON
Fri 09:32:00 PM 39.1667 -76.6667 339° North  Level FlightAware Approximate
Fri 09:39:00 PM 39.1754 -76.6683 339° North  Level Estimated
Fri 09:40:00 PM 39.1754 -76.6683 339° North  Level Estimated
Fri 09:41:00 PM 39.1754 -76.6683 339° North  Level Estimated
Fri 09:42:00 PM 39.1754 -76.6683 339° North  Level Estimated

Login

Don't have an account? Register now (free) for customized features, flight alerts, and more!